createdAt,value
2018-08-20T00:01:53.768Z,62.00
2018-08-20T00:04:21.224Z,62.20
2018-08-20T00:06:54.221Z,62.20
2018-08-20T00:09:34.507Z,62.20
2018-08-20T00:12:02.419Z,62.30
2018-08-20T00:14:30.065Z,62.40
2018-08-20T00:16:58.296Z,62.40
2018-08-20T00:19:25.812Z,62.60
2018-08-20T00:21:53.384Z,62.90
2018-08-20T00:24:22.536Z,63.00
2018-08-20T00:26:50.054Z,63.20
2018-08-20T00:29:17.584Z,63.70
2018-08-20T00:31:45.104Z,63.50
2018-08-20T00:34:12.967Z,63.60
2018-08-20T00:36:40.665Z,63.70
2018-08-20T00:39:10.016Z,63.70
2018-08-20T00:41:37.584Z,63.90
2018-08-20T00:44:09.859Z,64.60
2018-08-20T00:46:37.509Z,65.00
2018-08-20T00:49:05.165Z,65.20
2018-08-20T00:51:33.008Z,65.40
2018-08-20T00:54:00.466Z,65.40
2018-08-20T00:56:28.041Z,65.40
2018-08-20T00:58:55.497Z,65.10
2018-08-20T01:01:23.048Z,65.20
2018-08-20T01:03:50.692Z,65.40
2018-08-20T01:06:18.155Z,65.40
2018-08-20T01:08:45.660Z,65.60
2018-08-20T01:11:13.228Z,65.90
2018-08-20T01:13:40.888Z,66.10
2018-08-20T01:16:08.461Z,66.00
2018-08-20T01:18:37.254Z,66.20
2018-08-20T01:21:05.283Z,66.50
2018-08-20T01:23:33.009Z,67.00
2018-08-20T01:26:01.122Z,67.10
2018-08-20T01:28:38.954Z,67.40
2018-08-20T01:31:06.835Z,67.40
2018-08-20T01:33:34.748Z,67.40
2018-08-20T01:36:02.372Z,67.40
2018-08-20T01:38:29.887Z,67.70
2018-08-20T01:40:57.404Z,67.70
2018-08-20T01:43:24.892Z,67.80
2018-08-20T01:45:52.365Z,67.90
2018-08-20T01:48:19.820Z,67.80
2018-08-20T01:50:47.356Z,67.60
2018-08-20T01:53:14.855Z,67.50
2018-08-20T01:55:44.101Z,67.30
2018-08-20T01:58:11.767Z,67.80
2018-08-20T02:00:39.391Z,68.20
2018-08-20T02:03:07.245Z,68.20
2018-08-20T02:05:35.583Z,68.00
2018-08-20T02:08:03.373Z,68.10
2018-08-20T02:10:30.898Z,68.10
2018-08-20T02:12:58.434Z,68.10
2018-08-20T02:15:25.918Z,68.10
2018-08-20T02:17:53.693Z,68.10
2018-08-20T02:20:21.231Z,68.40
2018-08-20T02:22:48.844Z,69.00
2018-08-20T02:25:16.341Z,69.20
2018-08-20T02:27:43.923Z,69.40
2018-08-20T02:30:11.720Z,69.70
2018-08-20T02:32:39.360Z,69.60
2018-08-20T02:35:07.531Z,70.00
2018-08-20T02:37:40.817Z,69.80
2018-08-20T02:40:09.435Z,70.20
2018-08-20T02:42:37.264Z,70.20
2018-08-20T02:45:06.973Z,70.10
2018-08-20T02:47:34.895Z,69.70
2018-08-20T02:50:02.797Z,70.20
2018-08-20T02:52:30.377Z,70.40
2018-08-20T02:54:57.838Z,70.80
2018-08-20T02:57:25.355Z,71.10
2018-08-20T02:59:52.825Z,71.40
2018-08-20T03:02:20.373Z,71.50
2018-08-20T03:04:47.900Z,71.70
2018-08-20T03:07:15.804Z,71.90
2018-08-20T03:09:43.615Z,72.00
2018-08-20T03:12:11.385Z,72.10
2018-08-20T03:14:39.317Z,71.90
2018-08-20T03:17:07.615Z,72.20
2018-08-20T03:19:36.056Z,72.20
2018-08-20T03:22:04.441Z,73.10
2018-08-20T03:24:32.142Z,72.20
2018-08-20T03:26:59.853Z,72.10
2018-08-20T03:29:27.373Z,72.20
2018-08-20T03:31:54.885Z,72.10
2018-08-20T03:34:22.356Z,71.90
2018-08-20T03:36:49.823Z,71.80
2018-08-20T03:39:17.340Z,71.80
2018-08-20T03:41:44.809Z,71.70
2018-08-20T03:44:12.560Z,73.00
2018-08-20T03:46:40.445Z,72.40
2018-08-20T03:49:08.420Z,72.40
2018-08-20T03:51:36.234Z,72.00
2018-08-20T03:54:04.160Z,72.20
2018-08-20T03:56:31.707Z,71.90
2018-08-20T03:58:59.308Z,72.00
2018-08-20T04:01:26.772Z,72.10
2018-08-20T04:03:54.708Z,72.20
2018-08-20T04:06:22.193Z,72.00
2018-08-20T04:08:49.620Z,72.30
2018-08-20T04:11:17.208Z,72.50
2018-08-20T04:13:45.278Z,72.60
2018-08-20T04:16:13.362Z,73.10
2018-08-20T04:19:44.321Z,73.10
2018-08-20T04:22:12.024Z,73.20
2018-08-20T04:24:39.766Z,73.30
2018-08-20T04:27:07.735Z,73.30
2018-08-20T04:29:35.704Z,73.40
2018-08-20T04:32:03.818Z,73.30
2018-08-20T04:34:31.426Z,72.80
2018-08-20T04:36:58.944Z,73.00
2018-08-20T04:39:26.452Z,73.00
2018-08-20T04:41:53.987Z,73.10
2018-08-20T04:44:21.478Z,72.70
2018-08-20T04:46:49.027Z,72.50
2018-08-20T04:49:16.500Z,72.30
2018-08-20T04:51:44.004Z,72.20
2018-08-20T04:54:11.969Z,72.20
2018-08-20T04:56:39.725Z,72.20
2018-08-20T04:59:07.917Z,73.10
2018-08-20T05:01:35.980Z,72.40
2018-08-20T05:04:04.722Z,72.00
2018-08-20T05:06:35.555Z,72.10
2018-08-20T05:09:04.933Z,71.90
2018-08-20T05:11:33.490Z,71.90
2018-08-20T05:14:01.077Z,71.90
2018-08-20T05:16:28.536Z,72.20
2018-08-20T05:18:59.762Z,72.00
2018-08-20T05:21:27.155Z,71.90
2018-08-20T05:23:54.636Z,71.70
2018-08-20T05:26:22.188Z,71.40
2018-08-20T05:28:49.685Z,70.70
2018-08-20T05:31:17.169Z,70.70
2018-08-20T05:33:45.271Z,70.00
2018-08-20T05:36:13.561Z,69.90
2018-08-20T05:38:41.540Z,69.00
2018-08-20T05:41:10.019Z,69.10
2018-08-20T05:43:38.486Z,69.00
2018-08-20T05:46:06.954Z,69.30
2018-08-20T05:48:35.535Z,69.20
2018-08-20T05:51:04.022Z,69.20
2018-08-20T05:53:32.040Z,69.00
2018-08-20T05:56:00.172Z,69.00
2018-08-20T05:58:27.844Z,69.00
2018-08-20T06:00:55.916Z,68.70
2018-08-20T06:03:23.936Z,68.60
2018-08-20T06:05:51.654Z,68.20
2018-08-20T06:08:19.466Z,67.80
2018-08-20T06:10:47.370Z,67.30
2018-08-20T06:13:15.221Z,66.60
2018-08-20T06:15:43.222Z,66.40
2018-08-20T06:18:11.375Z,65.90
2018-08-20T06:20:39.648Z,65.40
2018-08-20T06:23:07.764Z,64.60
2018-08-20T06:25:35.963Z,64.30
2018-08-20T06:28:04.212Z,63.90
2018-08-20T06:30:32.246Z,64.00
2018-08-20T06:33:00.182Z,63.00
2018-08-20T06:35:28.050Z,60.90
2018-08-20T06:37:56.029Z,58.30
2018-08-20T06:40:23.932Z,57.90
2018-08-20T06:42:51.887Z,56.30
2018-08-20T06:45:19.884Z,54.80
2018-08-20T06:47:47.734Z,53.50
2018-08-20T06:50:15.999Z,53.60
2018-08-20T06:52:44.654Z,53.10
2018-08-20T06:55:13.830Z,51.00
2018-08-20T06:57:42.677Z,50.40
2018-08-20T07:00:11.603Z,49.50
2018-08-20T07:02:40.006Z,48.20
2018-08-20T07:05:08.317Z,48.10
2018-08-20T07:07:37.478Z,45.40
2018-08-20T07:10:08.229Z,45.30
2018-08-20T07:12:36.541Z,45.00
2018-08-20T07:15:05.230Z,45.20
2018-08-20T07:17:33.827Z,44.60
2018-08-20T07:20:01.624Z,45.00
2018-08-20T07:22:29.545Z,44.90
2018-08-20T07:24:57.480Z,44.30
2018-08-20T07:27:25.601Z,44.20
2018-08-20T07:29:53.483Z,43.90
2018-08-20T07:32:21.590Z,42.70
2018-08-20T07:34:49.356Z,43.00
2018-08-20T07:37:17.616Z,42.90
2018-08-20T07:39:47.665Z,42.50
2018-08-20T07:42:15.678Z,42.60
2018-08-20T07:44:44.429Z,43.10
2018-08-20T07:47:12.554Z,42.70
2018-08-20T07:49:40.496Z,43.20
2018-08-20T07:52:09.724Z,42.40
2018-08-20T07:54:38.366Z,42.70
2018-08-20T07:57:07.805Z,42.90
2018-08-20T07:59:36.146Z,42.70
2018-08-20T08:02:04.344Z,42.40
2018-08-20T08:04:32.879Z,42.10
2018-08-20T08:07:00.890Z,41.40
2018-08-20T08:09:28.701Z,41.60
2018-08-20T08:11:56.577Z,40.80
2018-08-20T08:14:24.322Z,41.20
2018-08-20T08:16:52.209Z,41.70
2018-08-20T08:19:20.175Z,40.80
2018-08-20T08:21:47.943Z,41.10
2018-08-20T08:24:15.866Z,41.60
2018-08-20T08:26:43.954Z,41.20
2018-08-20T08:29:11.934Z,41.20
2018-08-20T08:31:39.838Z,41.20
2018-08-20T08:34:07.651Z,41.60
2018-08-20T08:36:35.871Z,42.10
2018-08-20T08:39:05.956Z,42.10
2018-08-20T08:41:34.122Z,42.00
2018-08-20T08:44:02.018Z,41.90
2018-08-20T08:46:29.880Z,41.90
2018-08-20T08:48:57.752Z,41.60
2018-08-20T08:51:25.562Z,41.90
2018-08-20T08:53:53.373Z,42.90
2018-08-20T08:56:21.233Z,42.20
2018-08-20T08:58:49.184Z,41.90
2018-08-20T09:01:16.862Z,41.40
2018-08-20T09:03:44.863Z,41.50
2018-08-20T09:06:12.773Z,41.80
2018-08-20T09:08:40.634Z,41.80
2018-08-20T09:11:08.565Z,42.20
2018-08-20T09:13:36.787Z,41.90
2018-08-20T09:16:04.909Z,41.00
2018-08-20T09:18:32.835Z,41.10
2018-08-20T09:21:00.702Z,41.80
2018-08-20T09:23:28.645Z,41.10
2018-08-20T09:25:56.589Z,40.90
2018-08-20T09:28:24.566Z,42.20
2018-08-20T09:30:52.390Z,42.30
2018-08-20T09:33:20.577Z,41.90
2018-08-20T09:35:48.540Z,42.10
2018-08-20T09:38:16.550Z,42.40
2018-08-20T09:40:44.514Z,41.90
2018-08-20T09:43:12.573Z,40.70
2018-08-20T09:45:40.633Z,40.80
2018-08-20T09:48:08.776Z,40.60
2018-08-20T09:50:36.943Z,41.50
2018-08-20T09:53:06.286Z,41.40
2018-08-20T09:55:34.240Z,41.20
2018-08-20T09:58:02.227Z,41.40
2018-08-20T10:00:36.025Z,40.70
2018-08-20T10:03:04.592Z,40.60
2018-08-20T10:05:32.432Z,40.60
2018-08-20T10:08:00.374Z,40.10
2018-08-20T10:10:28.456Z,40.50
2018-08-20T10:12:56.403Z,40.60
2018-08-20T10:15:24.256Z,39.80
2018-08-20T10:17:52.286Z,40.00
2018-08-20T10:20:20.114Z,40.10
2018-08-20T10:22:47.917Z,40.00
2018-08-20T10:25:15.802Z,39.50
2018-08-20T10:27:43.746Z,39.80
2018-08-20T10:30:12.504Z,39.10
2018-08-20T10:32:40.925Z,39.70
2018-08-20T10:35:09.450Z,39.40
2018-08-20T10:37:37.685Z,39.40
2018-08-20T10:40:07.223Z,39.10
2018-08-20T10:42:35.669Z,38.80
2018-08-20T10:45:10.110Z,38.00
2018-08-20T10:47:38.201Z,38.00
2018-08-20T10:50:06.882Z,37.40
2018-08-20T10:52:35.288Z,38.30
2018-08-20T10:55:03.870Z,38.40
2018-08-20T10:57:31.925Z,38.50
2018-08-20T10:59:59.662Z,37.90
2018-08-20T11:02:27.530Z,38.00
2018-08-20T11:04:55.471Z,36.90
2018-08-20T11:07:23.937Z,36.70
2018-08-20T11:09:51.756Z,36.90
2018-08-20T11:12:19.623Z,37.00
2018-08-20T11:14:47.671Z,36.80
2018-08-20T11:17:15.553Z,37.20
2018-08-20T11:19:43.805Z,36.10
2018-08-20T11:22:11.943Z,36.40
2018-08-20T11:24:40.428Z,36.60
2018-08-20T11:27:08.875Z,37.10
2018-08-20T11:29:37.104Z,37.50
2018-08-20T11:32:05.413Z,37.30
2018-08-20T11:34:33.492Z,37.40
2018-08-20T11:37:01.479Z,37.50
2018-08-20T11:39:29.536Z,36.80
2018-08-20T11:41:57.356Z,36.70
2018-08-20T11:44:25.448Z,36.40
2018-08-20T11:46:53.610Z,35.60
2018-08-20T11:49:21.686Z,35.40
2018-08-20T11:51:49.577Z,36.30
2018-08-20T11:54:17.700Z,37.20
2018-08-20T11:56:45.913Z,38.00
2018-08-20T11:59:13.980Z,38.30
2018-08-20T12:01:41.906Z,39.00
2018-08-20T12:04:10.208Z,39.50
2018-08-20T12:06:38.469Z,40.60
2018-08-20T12:09:06.978Z,40.60
2018-08-20T12:11:35.490Z,41.40
2018-08-20T12:14:03.789Z,41.40
2018-08-20T12:16:31.768Z,41.70
2018-08-20T12:18:59.714Z,41.70
2018-08-20T12:21:27.634Z,41.90
2018-08-20T12:23:55.464Z,43.00
2018-08-20T12:26:30.042Z,44.10
2018-08-20T12:28:58.261Z,44.40
2018-08-20T12:31:26.225Z,45.30
2018-08-20T12:33:54.198Z,46.40
2018-08-20T12:36:22.153Z,46.20
2018-08-20T12:38:50.161Z,46.30
2018-08-20T12:41:18.083Z,47.20
2018-08-20T12:43:46.060Z,46.40
2018-08-20T12:46:18.032Z,46.10
2018-08-20T12:48:47.143Z,45.80
2018-08-20T12:51:14.997Z,45.00
2018-08-20T12:53:43.316Z,44.90
2018-08-20T12:56:11.601Z,44.50
2018-08-20T12:58:45.410Z,44.70
2018-08-20T13:01:13.740Z,44.60
2018-08-20T13:03:42.070Z,44.40
2018-08-20T13:06:10.520Z,43.80
2018-08-20T13:08:38.673Z,43.60
2018-08-20T13:11:07.115Z,44.10
2018-08-20T13:13:35.591Z,44.30
2018-08-20T13:16:04.102Z,44.10
2018-08-20T13:18:32.181Z,43.90
2018-08-20T13:21:00.480Z,43.90
2018-08-20T13:23:28.425Z,43.90
2018-08-20T13:25:56.299Z,44.40
2018-08-20T13:28:24.180Z,44.50
2018-08-20T13:30:52.047Z,44.80
2018-08-20T13:33:20.038Z,45.20
2018-08-20T13:35:48.737Z,45.10
2018-08-20T13:38:16.729Z,45.30
2018-08-20T13:40:44.621Z,45.40
2018-08-20T13:43:12.790Z,45.80
2018-08-20T13:45:41.015Z,45.80
2018-08-20T13:48:09.582Z,45.80
2018-08-20T13:50:37.866Z,45.60
2018-08-20T13:53:06.542Z,45.80
2018-08-20T13:55:34.825Z,45.70
2018-08-20T13:58:03.126Z,45.80
2018-08-20T14:00:31.134Z,45.40
2018-08-20T14:02:59.110Z,45.40
2018-08-20T14:05:27.118Z,45.70
2018-08-20T14:07:55.098Z,46.00
2018-08-20T14:10:22.887Z,46.10
2018-08-20T14:12:50.815Z,46.70
2018-08-20T14:15:18.737Z,47.30
2018-08-20T14:17:46.684Z,46.90
2018-08-20T14:20:15.795Z,46.90
2018-08-20T14:22:44.565Z,47.40
2018-08-20T14:25:12.642Z,47.40
2018-08-20T14:27:40.797Z,47.80
2018-08-20T14:30:10.802Z,47.10
2018-08-20T14:32:41.901Z,47.30
2018-08-20T14:35:10.532Z,47.80
2018-08-20T14:37:39.434Z,47.80
2018-08-20T14:40:13.876Z,47.80
2018-08-20T14:42:44.299Z,47.90
2018-08-20T14:45:13.762Z,47.70
2018-08-20T14:47:43.447Z,47.70
2018-08-20T14:50:14.003Z,47.30
2018-08-20T14:52:42.697Z,47.50
2018-08-20T14:55:11.482Z,47.80
2018-08-20T14:57:39.908Z,47.90
2018-08-20T15:00:11.191Z,47.10
2018-08-20T15:02:39.667Z,47.10
2018-08-20T15:05:08.599Z,47.70
2018-08-20T15:07:37.074Z,47.20
2018-08-20T15:10:06.622Z,47.20
2018-08-20T15:12:35.258Z,46.90
2018-08-20T15:15:03.607Z,46.40
2018-08-20T15:17:31.561Z,46.10
2018-08-20T15:20:06.828Z,46.10
2018-08-20T15:22:36.093Z,46.60
2018-08-20T15:25:04.693Z,47.00
2018-08-20T15:27:33.256Z,47.00
2018-08-20T15:30:01.194Z,47.10
2018-08-20T15:32:29.114Z,47.70
2018-08-20T15:34:57.037Z,47.70
2018-08-20T15:37:25.036Z,47.80
2018-08-20T15:39:52.936Z,48.20
2018-08-20T15:42:21.079Z,48.70
2018-08-20T15:44:49.146Z,49.10
2018-08-20T15:47:17.442Z,48.90
2018-08-20T15:49:45.847Z,49.30
2018-08-20T15:52:14.276Z,49.30
2018-08-20T15:54:42.795Z,49.60
2018-08-20T15:57:10.995Z,49.90
2018-08-20T15:59:39.361Z,50.30
2018-08-20T16:02:07.848Z,50.50
2018-08-20T16:04:36.461Z,50.90
2018-08-20T16:07:05.693Z,51.00
2018-08-20T16:09:34.500Z,51.00
2018-08-20T16:12:02.613Z,51.10
2018-08-20T16:14:30.826Z,50.90
2018-08-20T16:16:58.756Z,50.20
2018-08-20T16:19:27.039Z,50.20
2018-08-20T16:21:54.985Z,49.80
2018-08-20T16:24:23.034Z,49.80
2018-08-20T16:26:51.003Z,49.80
2018-08-20T16:29:19.065Z,49.10
2018-08-20T16:31:48.466Z,48.90
2018-08-20T16:34:16.528Z,48.60
2018-08-20T16:36:45.992Z,48.90
2018-08-20T16:39:14.464Z,49.00
2018-08-20T16:41:42.613Z,48.40
2018-08-20T16:44:11.385Z,49.00
2018-08-20T16:46:39.833Z,48.80
2018-08-20T16:49:09.760Z,49.00
2018-08-20T16:51:38.438Z,48.80
2018-08-20T16:54:08.254Z,49.00
2018-08-20T16:56:37.431Z,49.00
2018-08-20T16:59:11.798Z,49.50
2018-08-20T17:01:40.354Z,49.70
2018-08-20T17:04:23.792Z,50.70
2018-08-20T17:06:52.006Z,51.00
2018-08-20T17:09:20.013Z,51.40
2018-08-20T17:11:48.154Z,51.30
2018-08-20T17:14:16.268Z,51.40
2018-08-20T17:16:44.541Z,51.30
2018-08-20T17:19:13.054Z,51.50
2018-08-20T17:21:41.007Z,51.90
2018-08-20T17:24:09.582Z,51.60
2018-08-20T17:26:38.856Z,52.10
2018-08-20T17:29:10.937Z,51.90
2018-08-20T17:31:39.716Z,52.20
2018-08-20T17:34:07.914Z,52.20
2018-08-20T17:36:39.738Z,52.10
2018-08-20T17:39:08.912Z,52.30
2018-08-20T17:41:40.486Z,52.70
2018-08-20T17:44:09.524Z,52.20
2018-08-20T17:46:39.249Z,53.00
2018-08-20T17:49:10.837Z,52.50
2018-08-20T17:51:39.860Z,52.50
2018-08-20T17:54:09.198Z,52.40
2018-08-20T17:56:37.485Z,52.50
2018-08-20T17:59:12.462Z,52.60
2018-08-20T18:01:41.560Z,52.70
2018-08-20T18:04:10.235Z,52.90
2018-08-20T18:06:55.062Z,53.30
2018-08-20T18:09:22.951Z,53.20
2018-08-20T18:11:53.096Z,53.60
2018-08-20T18:14:22.302Z,53.60
2018-08-20T18:16:50.318Z,53.70
2018-08-20T18:19:34.932Z,54.00
2018-08-20T18:22:03.231Z,53.90
2018-08-20T18:24:31.264Z,54.10
2018-08-20T18:26:59.791Z,54.20
2018-08-20T18:29:27.908Z,54.20
2018-08-20T18:32:00.184Z,54.40
2018-08-20T18:34:28.145Z,54.40
2018-08-20T18:36:56.250Z,54.60
2018-08-20T18:39:28.220Z,54.80
2018-08-20T18:41:58.606Z,54.80
2018-08-20T18:44:26.771Z,54.80
2018-08-20T18:46:54.884Z,55.00
2018-08-20T18:49:23.457Z,55.20
2018-08-20T18:51:57.023Z,55.40
2018-08-20T18:54:26.231Z,55.40
2018-08-20T18:56:58.843Z,55.50
2018-08-20T18:59:26.783Z,55.60
2018-08-20T19:01:55.182Z,55.90
2018-08-20T19:04:23.286Z,55.90
2018-08-20T19:06:56.852Z,56.00
2018-08-20T19:09:26.892Z,56.30
2018-08-20T19:11:54.867Z,56.60
2018-08-20T19:14:23.036Z,56.50
2018-08-20T19:16:51.169Z,56.60
2018-08-20T19:19:19.225Z,56.80
2018-08-20T19:21:47.299Z,56.80
2018-08-20T19:24:15.627Z,56.90
2018-08-20T19:26:43.637Z,56.90
2018-08-20T19:29:30.360Z,57.20
2018-08-20T19:31:58.350Z,57.30
2018-08-20T19:34:26.320Z,57.30
2018-08-20T19:36:54.389Z,57.40
2018-08-20T19:39:23.666Z,57.70
2018-08-20T19:41:51.414Z,57.50
2018-08-20T19:44:19.086Z,57.60
2018-08-20T19:46:46.861Z,57.70
2018-08-20T19:49:15.202Z,57.80
2018-08-20T19:51:44.068Z,57.50
2018-08-20T19:54:13.764Z,57.70
2018-08-20T19:56:41.404Z,57.60
2018-08-20T19:59:10.769Z,57.70
2018-08-20T20:01:39.703Z,57.70
2018-08-20T20:04:13.070Z,57.70
2018-08-20T20:06:41.849Z,58.10
2018-08-20T20:09:11.117Z,58.00
2018-08-20T20:11:45.541Z,58.00
2018-08-20T20:14:13.741Z,58.20
2018-08-20T20:16:47.364Z,58.30
2018-08-20T20:19:15.537Z,58.20
2018-08-20T20:21:43.698Z,58.20
2018-08-20T20:24:12.356Z,58.10
2018-08-20T20:26:40.932Z,58.30
2018-08-20T20:29:10.346Z,58.30
2018-08-20T20:31:40.205Z,58.20
2018-08-20T20:34:09.245Z,58.50
2018-08-20T20:36:38.526Z,58.50
2018-08-20T20:39:10.310Z,58.70
2018-08-20T20:41:39.048Z,58.80
2018-08-20T20:44:08.701Z,58.60
2018-08-20T20:46:38.296Z,58.80
2018-08-20T20:49:07.258Z,58.50
2018-08-20T20:51:44.770Z,58.60
2018-08-20T20:54:12.768Z,58.70
2018-08-20T20:56:40.840Z,58.70
2018-08-20T20:59:09.032Z,59.00
2018-08-20T21:01:37.609Z,59.00
2018-08-20T21:04:07.751Z,59.20
2018-08-20T21:06:40.235Z,59.20
2018-08-20T21:09:12.100Z,59.60
2018-08-20T21:11:40.460Z,59.80
2018-08-20T21:14:08.751Z,60.00
2018-08-20T21:16:38.346Z,60.30
2018-08-20T21:19:07.043Z,60.40
2018-08-20T21:21:36.800Z,60.60
2018-08-20T21:24:08.154Z,60.80
2018-08-20T21:29:22.966Z,61.70
2018-08-20T21:31:50.587Z,61.10
2018-08-20T21:34:18.454Z,61.10
2018-08-20T21:36:46.129Z,61.30
2018-08-20T21:39:13.655Z,61.80
2018-08-20T21:41:41.274Z,61.80
2018-08-20T21:44:09.059Z,62.30
2018-08-20T21:46:36.804Z,62.80
2018-08-20T21:49:05.548Z,62.80
2018-08-20T21:51:41.703Z,63.10
2018-08-20T21:54:09.412Z,63.50
2018-08-20T21:56:47.859Z,63.70
2018-08-20T21:59:15.411Z,63.90
2018-08-20T22:01:43.424Z,64.00
2018-08-20T22:04:20.020Z,64.50
2018-08-20T22:06:48.199Z,64.80
2018-08-20T22:09:15.756Z,65.00
2018-08-20T22:11:43.363Z,65.10
2018-08-20T22:14:10.963Z,65.80
2018-08-20T22:16:38.843Z,64.90
2018-08-20T22:19:06.737Z,65.10
2018-08-20T22:21:34.668Z,65.30
2018-08-20T22:24:03.080Z,65.20
2018-08-20T22:26:30.731Z,65.40
2018-08-20T22:28:58.652Z,65.40
2018-08-20T22:31:26.209Z,65.40
2018-08-20T22:34:00.595Z,65.40
2018-08-20T22:36:29.488Z,65.30
2018-08-20T22:38:59.172Z,65.40
2018-08-20T22:41:27.834Z,65.20
2018-08-20T22:43:55.356Z,65.40
2018-08-20T22:46:23.654Z,65.60
2018-08-20T22:48:52.586Z,65.60
2018-08-20T22:51:20.887Z,65.70
2018-08-20T22:53:49.761Z,65.90
2018-08-20T22:56:23.783Z,65.90
2018-08-20T22:58:51.710Z,66.50
2018-08-20T23:01:19.382Z,66.90
2018-08-20T23:03:46.973Z,67.20
2018-08-20T23:06:14.604Z,67.10
2018-08-20T23:08:42.361Z,67.40
2018-08-20T23:11:10.068Z,67.20
2018-08-20T23:13:37.724Z,67.40
2018-08-20T23:16:05.486Z,67.20
2018-08-20T23:18:33.575Z,67.40
2018-08-20T23:21:01.136Z,67.60
2018-08-20T23:23:34.169Z,67.60
2018-08-20T23:26:05.512Z,67.50
2018-08-20T23:28:34.388Z,67.80
2018-08-20T23:31:02.549Z,68.10
2018-08-20T23:33:31.204Z,68.10
2018-08-20T23:35:59.001Z,67.90
2018-08-20T23:38:29.158Z,67.90
2018-08-20T23:40:59.370Z,68.00
2018-08-20T23:43:27.867Z,68.10
2018-08-20T23:45:56.020Z,68.10
2018-08-20T23:48:24.669Z,67.80
2018-08-20T23:50:58.400Z,67.90
2018-08-20T23:53:33.465Z,67.90
2018-08-20T23:56:01.610Z,67.80
2018-08-20T23:58:29.566Z,68.10
